Time;durP1;ratioP1;P1;durP2;ratioP2;P2;SDS_P1;SDS_P2;PMS_P1;PMS_P2;Temp;Humidity;BMP_temperature;BMP_pressure;BME280_temperature;BME280_humidity;BME280_pressure;Samples;Min_cycle;Max_cycle;Signal;HPM_P1;HPM_P2
2023/09/15 00:01:11;;;;;;;3.63;2.47;;;;;;;;;;6169505;23;20601;-88
2023/09/15 00:03:40;;;;;;;3.00;2.20;;;;;;;;;;6195685;23;20923;-88
2023/09/15 00:06:08;;;;;;;8.10;3.93;;;;;;;;;;6195893;23;20612;-88
2023/09/15 00:08:37;;;;;;;3.70;2.33;;;;;;;;;;6196331;23;20688;-88
2023/09/15 00:11:08;;;;;;;4.37;2.37;;;;;;;;;;6170136;23;20687;-88
2023/09/15 00:13:36;;;;;;;3.70;2.40;;;;;;;;;;6146189;23;20618;-88
2023/09/15 00:16:05;;;;;;;4.30;2.10;;;;;;;;;;6170144;23;20588;-88
2023/09/15 00:18:34;;;;;;;7.03;2.67;;;;;;;;;;6195912;23;20626;-88
2023/09/15 00:21:02;;;;;;;3.57;2.30;;;;;;;;;;6145866;23;20567;-88
2023/09/15 00:23:31;;;;;;;5.20;2.30;;;;;;;;;;6170401;23;20608;-88
2023/09/15 00:26:02;;;;;;;6.03;2.30;;;;;;;;;;6170190;23;20697;-88
2023/09/15 00:28:33;;;;;;;5.27;2.13;;;;;;;;;;6169610;23;20647;-88
2023/09/15 00:31:02;;;;;;;6.13;2.70;;;;;;;;;;6195397;23;20600;-88
2023/09/15 00:33:30;;;;;;;8.40;2.73;;;;;;;;;;6170011;23;20591;-88
2023/09/15 00:36:00;;;;;;;4.53;2.40;;;;;;;;;;6168639;23;20599;-88
2023/09/15 00:38:28;;;;;;;8.13;2.87;;;;;;;;;;6169100;23;20635;-88
2023/09/15 00:40:56;;;;;;;6.90;2.27;;;;;;;;;;6169736;23;20608;-88
2023/09/15 00:43:26;;;;;;;5.83;2.60;;;;;;;;;;6167791;23;21080;-88
2023/09/15 00:45:57;;;;;;;4.27;2.33;;;;;;;;;;6167635;23;20588;-88
2023/09/15 00:48:26;;;;;;;4.60;2.40;;;;;;;;;;6167623;23;20560;-87
2023/09/15 00:50:54;;;;;;;4.13;1.87;;;;;;;;;;6194060;23;20569;-88
2023/09/15 00:53:22;;;;;;;4.40;2.53;;;;;;;;;;6166728;23;20588;-88
2023/09/15 00:55:51;;;;;;;8.77;3.10;;;;;;;;;;6166542;23;20579;-88
2023/09/15 00:58:20;;;;;;;4.10;2.27;;;;;;;;;;6166520;23;20656;-88
2023/09/15 01:00:49;;;;;;;4.10;2.33;;;;;;;;;;6170934;23;20608;-89
2023/09/15 01:03:20;;;;;;;3.60;2.33;;;;;;;;;;6149872;23;20595;-89
2023/09/15 01:05:48;;;;;;;3.80;2.27;;;;;;;;;;6150818;23;20582;-91
2023/09/15 01:08:17;;;;;;;3.07;2.30;;;;;;;;;;6201748;23;20572;-90
2023/09/15 01:10:46;;;;;;;8.10;3.27;;;;;;;;;;6178551;23;20632;-90
2023/09/15 01:13:14;;;;;;;5.93;3.27;;;;;;;;;;6175824;23;20562;-90
2023/09/15 01:15:45;;;;;;;6.20;3.13;;;;;;;;;;6152559;23;20599;-90
2023/09/15 01:18:22;;;;;;;3.80;2.83;;;;;;;;;;6176495;23;21078;-89
2023/09/15 01:21:03;;;;;;;5.43;2.37;;;;;;;;;;6175211;23;20571;-90
2023/09/15 01:23:44;;;;;;;4.67;2.03;;;;;;;;;;6150522;23;20548;-89
2023/09/15 01:26:23;;;;;;;5.13;2.70;;;;;;;;;;6176540;23;20588;-90
2023/09/15 01:29:03;;;;;;;3.30;2.43;;;;;;;;;;6202443;23;20524;-90
2023/09/15 01:31:34;;;;;;;6.07;2.20;;;;;;;;;;6210631;23;20540;-89
2023/09/15 01:34:04;;;;;;;9.43;2.87;;;;;;;;;;6210106;23;20548;-88
2023/09/15 01:36:33;;;;;;;7.10;2.90;;;;;;;;;;6178158;23;20515;-90
2023/09/15 01:39:02;;;;;;;2.93;2.63;;;;;;;;;;6199527;23;20632;-90
2023/09/15 01:41:33;;;;;;;5.43;2.57;;;;;;;;;;6174273;23;20599;-90
2023/09/15 01:44:04;;;;;;;7.23;2.67;;;;;;;;;;6147700;23;20580;-91
2023/09/15 01:46:34;;;;;;;4.47;2.50;;;;;;;;;;6172616;23;20628;-90
2023/09/15 01:49:03;;;;;;;4.47;2.70;;;;;;;;;;6197168;23;20605;-90
2023/09/15 01:51:32;;;;;;;2.67;2.03;;;;;;;;;;6172547;23;20604;-90
2023/09/15 01:54:01;;;;;;;8.80;4.23;;;;;;;;;;6146337;23;20628;-90
2023/09/15 01:56:30;;;;;;;7.10;2.90;;;;;;;;;;6199239;23;20606;-90
2023/09/15 01:58:59;;;;;;;4.60;2.90;;;;;;;;;;6196609;23;21293;-90
2023/09/15 02:01:27;;;;;;;2.97;2.30;;;;;;;;;;6171744;23;20574;-90
2023/09/15 02:03:58;;;;;;;5.60;2.80;;;;;;;;;;6148551;23;20577;-87
2023/09/15 02:06:26;;;;;;;6.40;3.10;;;;;;;;;;6172276;23;21118;-88
2023/09/15 02:08:55;;;;;;;3.33;2.77;;;;;;;;;;6173044;23;20632;-90
2023/09/15 02:11:23;;;;;;;6.27;3.27;;;;;;;;;;6176690;23;21095;-89
2023/09/15 02:13:52;;;;;;;4.70;2.60;;;;;;;;;;6197755;23;20599;-91
2023/09/15 02:16:24;;;;;;;8.57;3.07;;;;;;;;;;6170982;23;20557;-90
2023/09/15 02:18:55;;;;;;;7.37;3.07;;;;;;;;;;6172235;23;20624;-90
2023/09/15 02:21:28;;;;;;;7.50;3.40;;;;;;;;;;6196758;23;20549;-89
2023/09/15 02:23:56;;;;;;;3.97;2.40;;;;;;;;;;6171507;23;20592;-90
2023/09/15 02:26:25;;;;;;;7.87;3.10;;;;;;;;;;6170769;23;20561;-88
2023/09/15 02:28:54;;;;;;;7.63;2.40;;;;;;;;;;6146250;23;20536;-90
2023/09/15 02:31:22;;;;;;;3.83;2.60;;;;;;;;;;6171876;23;20565;-90
2023/09/15 02:33:51;;;;;;;7.73;2.80;;;;;;;;;;6146764;23;20591;-90
2023/09/15 02:36:19;;;;;;;11.40;2.80;;;;;;;;;;6144821;23;20577;-89
2023/09/15 02:38:50;;;;;;;3.77;2.90;;;;;;;;;;6143691;23;20627;-90
2023/09/15 02:41:19;;;;;;;5.57;2.93;;;;;;;;;;6169552;23;20541;-89
2023/09/15 02:43:48;;;;;;;8.07;3.03;;;;;;;;;;6170186;23;20758;-90
2023/09/15 02:46:17;;;;;;;3.00;2.17;;;;;;;;;;6172157;23;20548;-89
2023/09/15 02:48:48;;;;;;;11.10;3.17;;;;;;;;;;6172734;23;20620;-90
2023/09/15 02:51:17;;;;;;;2.97;2.73;;;;;;;;;;6197608;23;20531;-89
2023/09/15 02:53:45;;;;;;;7.10;2.20;;;;;;;;;;6196968;23;20801;-90
2023/09/15 02:56:15;;;;;;;8.10;3.00;;;;;;;;;;6197157;23;20604;-90
2023/09/15 02:58:46;;;;;;;8.90;3.47;;;;;;;;;;6171473;23;20608;-90
2023/09/15 03:01:16;;;;;;;5.33;2.77;;;;;;;;;;6169071;23;20608;-88
2023/09/15 03:03:49;;;;;;;5.97;3.03;;;;;;;;;;6168741;23;20652;-90
2023/09/15 03:06:19;;;;;;;13.90;2.70;;;;;;;;;;6192351;23;20667;-89
2023/09/15 03:08:48;;;;;;;3.10;2.50;;;;;;;;;;6170493;23;20603;-90
2023/09/15 03:11:21;;;;;;;5.13;2.93;;;;;;;;;;6168760;23;20544;-90
2023/09/15 03:13:56;;;;;;;8.10;3.10;;;;;;;;;;6171318;23;20554;-88
2023/09/15 03:16:26;;;;;;;3.10;2.70;;;;;;;;;;6195591;23;20663;-90
2023/09/15 03:18:55;;;;;;;13.97;3.10;;;;;;;;;;6145253;23;20676;-90
2023/09/15 03:21:24;;;;;;;4.47;2.80;;;;;;;;;;6170362;23;20539;-90
2023/09/15 03:23:52;;;;;;;7.13;3.87;;;;;;;;;;6171604;23;20609;-90
2023/09/15 03:26:23;;;;;;;7.33;3.30;;;;;;;;;;6171405;23;20602;-89
2023/09/15 03:28:54;;;;;;;4.60;2.67;;;;;;;;;;6171565;23;21016;-90
2023/09/15 03:31:23;;;;;;;3.50;2.43;;;;;;;;;;6170825;23;20569;-89
2023/09/15 03:33:52;;;;;;;2.90;2.70;;;;;;;;;;6171470;23;20599;-90
2023/09/15 03:36:21;;;;;;;4.23;3.10;;;;;;;;;;6144991;23;20620;-89
2023/09/15 03:38:50;;;;;;;6.03;3.17;;;;;;;;;;6195159;23;20648;-89
2023/09/15 03:41:19;;;;;;;4.70;3.13;;;;;;;;;;6169506;23;20616;-89
2023/09/15 03:43:51;;;;;;;9.60;2.60;;;;;;;;;;6145996;23;21017;-90
2023/09/15 03:46:21;;;;;;;10.53;3.13;;;;;;;;;;6170038;23;20879;-90
2023/09/15 03:48:50;;;;;;;5.47;3.33;;;;;;;;;;6170812;23;20587;-89
2023/09/15 03:51:22;;;;;;;7.67;4.00;;;;;;;;;;6171438;23;21136;-90
2023/09/15 03:53:51;;;;;;;6.37;2.97;;;;;;;;;;6172397;23;20545;-90
2023/09/15 03:56:19;;;;;;;7.90;3.27;;;;;;;;;;6172214;23;20600;-89
2023/09/15 03:58:49;;;;;;;6.17;3.30;;;;;;;;;;6148472;23;20631;-89
2023/09/15 04:01:23;;;;;;;4.07;2.50;;;;;;;;;;6170082;23;20573;-89
2023/09/15 04:03:52;;;;;;;6.40;3.53;;;;;;;;;;6170148;23;20643;-91
2023/09/15 04:06:21;;;;;;;3.70;3.23;;;;;;;;;;6169544;23;20588;-90
2023/09/15 04:08:49;;;;;;;10.70;4.77;;;;;;;;;;6171269;23;20584;-88
2023/09/15 04:11:18;;;;;;;9.33;4.13;;;;;;;;;;6171178;23;20584;-89
2023/09/15 04:13:46;;;;;;;10.53;4.50;;;;;;;;;;6171156;23;20923;-89
2023/09/15 04:16:16;;;;;;;5.07;3.90;;;;;;;;;;6171057;23;20529;-88
2023/09/15 04:18:47;;;;;;;6.37;3.90;;;;;;;;;;6146556;23;20596;-90
2023/09/15 04:21:16;;;;;;;6.33;3.60;;;;;;;;;;6197019;23;20571;-89
2023/09/15 04:23:46;;;;;;;4.50;3.43;;;;;;;;;;6170687;23;20608;-89
2023/09/15 04:26:18;;;;;;;5.90;3.83;;;;;;;;;;6147001;23;20544;-88
2023/09/15 04:28:54;;;;;;;7.40;3.27;;;;;;;;;;6148551;23;20568;-90
2023/09/15 04:31:26;;;;;;;7.63;3.83;;;;;;;;;;6170752;23;20560;-88
2023/09/15 04:33:59;;;;;;;6.10;3.30;;;;;;;;;;6171785;23;20580;-90
2023/09/15 04:36:31;;;;;;;7.47;3.37;;;;;;;;;;6196730;23;20663;-91
2023/09/15 04:39:00;;;;;;;5.23;2.57;;;;;;;;;;6172025;23;21020;-90
2023/09/15 04:41:29;;;;;;;7.57;3.87;;;;;;;;;;6170609;23;20576;-89
2023/09/15 04:43:58;;;;;;;6.47;3.20;;;;;;;;;;6173040;23;20639;-89
2023/09/15 04:46:32;;;;;;;4.40;3.30;;;;;;;;;;6170952;23;20584;-88
2023/09/15 04:49:02;;;;;;;5.53;3.57;;;;;;;;;;6172860;23;20611;-90
2023/09/15 04:51:32;;;;;;;11.37;3.60;;;;;;;;;;6197749;23;20526;-89
2023/09/15 04:54:10;;;;;;;7.07;3.33;;;;;;;;;;6147989;23;20970;-88
2023/09/15 04:56:44;;;;;;;6.43;3.50;;;;;;;;;;6173591;23;20595;-89
2023/09/15 04:59:20;;;;;;;3.83;3.07;;;;;;;;;;6195985;23;20599;-89
2023/09/15 05:01:52;;;;;;;10.10;3.43;;;;;;;;;;6148771;23;20573;-90
2023/09/15 05:04:26;;;;;;;5.33;3.10;;;;;;;;;;6172680;23;20640;-90
2023/09/15 05:06:55;;;;;;;5.60;3.33;;;;;;;;;;6148685;23;20681;-90
2023/09/15 05:09:24;;;;;;;7.13;2.83;;;;;;;;;;6199956;23;21136;-90
2023/09/15 05:11:52;;;;;;;6.37;3.50;;;;;;;;;;6149820;23;20616;-90
2023/09/15 05:14:22;;;;;;;4.40;3.83;;;;;;;;;;6172969;23;20596;-90
2023/09/15 05:16:51;;;;;;;6.60;3.20;;;;;;;;;;6143495;23;20612;-82
2023/09/15 05:19:19;;;;;;;5.77;2.87;;;;;;;;;;6191114;23;20632;-86
2023/09/15 05:21:50;;;;;;;10.07;4.20;;;;;;;;;;6139918;23;20611;-85
2023/09/15 05:24:19;;;;;;;10.30;3.10;;;;;;;;;;6167348;23;20547;-86
2023/09/15 05:26:49;;;;;;;9.53;4.00;;;;;;;;;;6207488;23;20718;-86
2023/09/15 05:32:20;;;;;;;4.07;3.10;;;;;;;;;;6220641;22;20608;-87
2023/09/15 05:34:49;;;;;;;8.07;3.70;;;;;;;;;;6238683;22;20586;-88
2023/09/15 05:37:22;;;;;;;5.63;3.07;;;;;;;;;;6241663;22;20583;-86
2023/09/15 05:39:54;;;;;;;5.33;3.40;;;;;;;;;;6241106;22;20561;-90
2023/09/15 05:42:26;;;;;;;11.63;4.00;;;;;;;;;;6218099;22;20556;-86
2023/09/15 05:44:59;;;;;;;5.33;3.60;;;;;;;;;;6203759;23;21175;-86
2023/09/15 05:47:30;;;;;;;9.23;3.60;;;;;;;;;;6188343;23;20597;-85
2023/09/15 05:52:58;;;;;;;12.97;4.17;;;;;;;;;;6219813;22;20585;-86
2023/09/15 05:55:30;;;;;;;9.17;3.97;;;;;;;;;;6265949;22;20574;-87
2023/09/15 05:57:58;;;;;;;5.07;3.27;;;;;;;;;;6183156;23;20535;-88
2023/09/15 06:00:30;;;;;;;8.00;2.97;;;;;;;;;;6209888;23;20612;-86
2023/09/15 06:03:02;;;;;;;7.03;2.70;;;;;;;;;;6209768;23;20631;-89
2023/09/15 06:05:31;;;;;;;4.57;3.27;;;;;;;;;;6157310;23;20584;-90
2023/09/15 06:24:26;;;;;;;12.70;3.63;;;;;;;;;;6221911;22;20574;-87
2023/09/15 06:58:58;;;;;;;8.17;3.40;;;;;;;;;;6289622;22;20604;-89
2023/09/15 07:05:06;;;;;;;5.87;3.90;;;;;;;;;;6231809;22;20640;-88
2023/09/15 07:18:17;;;;;;;6.57;3.93;;;;;;;;;;6224944;22;20630;-85
2023/09/15 07:28:21;;;;;;;14.40;6.20;;;;;;;;;;6210684;22;20597;-88
2023/09/15 07:53:19;;;;;;;4.80;3.67;;;;;;;;;;6293134;22;20600;-88
2023/09/15 07:59:07;;;;;;;11.03;6.50;;;;;;;;;;6267494;22;20542;-88
2023/09/15 09:47:59;;;;;;;8.07;5.30;;;;;;;;;;6260417;22;20719;-89
2023/09/15 09:54:10;;;;;;;6.47;5.47;;;;;;;;;;6266581;22;20575;-90
2023/09/15 09:59:49;;;;;;;6.47;5.60;;;;;;;;;;6264567;22;20586;-91
2023/09/15 10:02:33;;;;;;;5.60;5.00;;;;;;;;;;6268552;22;20579;-88
2023/09/15 10:08:45;;;;;;;9.00;5.73;;;;;;;;;;6211992;23;20590;-89
2023/09/15 10:11:47;;;;;;;14.23;5.30;;;;;;;;;;6178767;23;20616;-90
2023/09/15 10:20:36;;;;;;;6.00;5.40;;;;;;;;;;6265983;22;20694;-90
2023/09/15 10:23:41;;;;;;;12.17;5.87;;;;;;;;;;6248415;23;20593;-89
2023/09/15 10:26:44;;;;;;;6.13;5.50;;;;;;;;;;6269681;22;20540;-90
2023/09/15 10:35:26;;;;;;;7.90;6.40;;;;;;;;;;6237033;23;20620;-89
2023/09/15 10:38:16;;;;;;;6.20;5.60;;;;;;;;;;6160639;23;20574;-88
2023/09/15 10:41:15;;;;;;;10.33;6.30;;;;;;;;;;6209115;23;20588;-90
2023/09/15 10:44:18;;;;;;;7.47;5.77;;;;;;;;;;6233338;23;20564;-90
2023/09/15 10:46:59;;;;;;;7.87;5.50;;;;;;;;;;6209237;23;20560;-89
2023/09/15 10:49:49;;;;;;;6.33;5.83;;;;;;;;;;6183847;23;20594;-89
2023/09/15 10:52:49;;;;;;;7.33;6.73;;;;;;;;;;6157496;23;20667;-89
2023/09/15 10:55:49;;;;;;;7.73;6.50;;;;;;;;;;6229756;23;20564;-89
2023/09/15 10:58:23;;;;;;;8.20;6.07;;;;;;;;;;6202448;23;20567;-89
2023/09/15 11:00:56;;;;;;;6.93;5.90;;;;;;;;;;6199261;23;20626;-88
2023/09/15 11:03:26;;;;;;;6.17;5.67;;;;;;;;;;6173222;23;20599;-89
2023/09/15 11:05:55;;;;;;;6.67;5.83;;;;;;;;;;6204095;23;20594;-89
2023/09/15 11:08:28;;;;;;;6.40;6.00;;;;;;;;;;6213168;22;20641;-87
2023/09/15 11:11:03;;;;;;;6.87;6.30;;;;;;;;;;6273588;22;20557;-86
2023/09/15 11:13:33;;;;;;;6.60;6.20;;;;;;;;;;6299347;22;20549;-88
2023/09/15 11:16:04;;;;;;;6.80;6.40;;;;;;;;;;6301404;22;20554;-89
2023/09/15 11:18:38;;;;;;;6.53;6.00;;;;;;;;;;6301598;22;20541;-88
2023/09/15 11:21:08;;;;;;;6.03;5.73;;;;;;;;;;6275777;22;20577;-89
2023/09/15 11:36:41;;;;;;;7.00;6.60;;;;;;;;;;6227907;22;22023;-87
2023/09/15 11:45:13;;;;;;;7.10;6.60;;;;;;;;;;6265207;22;20614;-87
2023/09/15 11:47:51;;;;;;;7.40;6.90;;;;;;;;;;6198313;23;20627;-88
2023/09/15 11:50:34;;;;;;;7.90;7.40;;;;;;;;;;6228211;22;20634;-88
2023/09/15 11:53:19;;;;;;;7.50;6.80;;;;;;;;;;6220744;22;20629;-87
2023/09/15 11:57:02;;;;;;;7.17;6.77;;;;;;;;;;6232407;23;20602;-88
2023/09/15 11:59:38;;;;;;;7.10;6.60;;;;;;;;;;6229155;23;20582;-86
2023/09/15 12:02:07;;;;;;;7.70;7.10;;;;;;;;;;6179912;23;20620;-84
2023/09/15 12:04:35;;;;;;;7.53;7.00;;;;;;;;;;6233574;23;20592;-86
2023/09/15 12:07:05;;;;;;;7.50;7.10;;;;;;;;;;6206913;23;20567;-86
2023/09/15 12:09:40;;;;;;;7.17;6.77;;;;;;;;;;6211093;23;20550;-91
2023/09/15 12:20:57;;;;;;;8.77;8.17;;;;;;;;;;6208983;23;20654;-89
2023/09/15 12:33:21;;;;;;;8.00;7.23;;;;;;;;;;6162307;23;20644;-90
2023/09/15 12:35:57;;;;;;;7.77;7.37;;;;;;;;;;6173784;23;20585;-88
2023/09/15 12:38:26;;;;;;;12.20;7.93;;;;;;;;;;6120428;23;20577;-87
2023/09/15 12:40:54;;;;;;;10.73;7.33;;;;;;;;;;6146853;23;20562;-89
2023/09/15 12:43:24;;;;;;;7.77;7.27;;;;;;;;;;6171128;23;20633;-88
2023/09/15 12:45:58;;;;;;;8.50;7.53;;;;;;;;;;6169675;23;20594;-90
2023/09/15 12:48:26;;;;;;;7.93;7.53;;;;;;;;;;6145293;23;20564;-88
2023/09/15 12:50:54;;;;;;;10.00;7.50;;;;;;;;;;6140881;23;20656;-90
2023/09/15 12:53:29;;;;;;;7.73;7.33;;;;;;;;;;6118572;23;20590;-91
2023/09/15 12:56:00;;;;;;;7.80;7.30;;;;;;;;;;6117076;23;20534;-89
2023/09/15 13:23:25;;;;;;;10.87;8.20;;;;;;;;;;6255607;22;20613;-90
2023/09/15 13:26:05;;;;;;;8.33;7.83;;;;;;;;;;6185519;22;20594;-88
2023/09/15 13:28:52;;;;;;;8.90;8.30;;;;;;;;;;6233344;22;20551;-88
2023/09/15 13:31:40;;;;;;;8.67;8.07;;;;;;;;;;6209094;23;21137;-89
2023/09/15 13:37:35;;;;;;;8.33;7.83;;;;;;;;;;6237905;22;20550;-89
2023/09/15 14:01:20;;;;;;;9.37;8.87;;;;;;;;;;6252554;22;20605;-89
2023/09/15 14:20:48;;;;;;;8.87;8.37;;;;;;;;;;6216592;22;20671;-90
2023/09/15 14:23:40;;;;;;;9.20;8.47;;;;;;;;;;6252017;23;20540;-86
2023/09/15 14:26:10;;;;;;;9.13;8.57;;;;;;;;;;6228357;23;20577;-86
2023/09/15 14:28:41;;;;;;;8.83;8.23;;;;;;;;;;6254859;22;20563;-85
2023/09/15 14:31:12;;;;;;;8.97;8.50;;;;;;;;;;6205553;23;20563;-85
2023/09/15 14:33:41;;;;;;;8.83;8.30;;;;;;;;;;6232030;23;20653;-86
2023/09/15 14:36:19;;;;;;;8.97;8.47;;;;;;;;;;6232976;23;20559;-85
2023/09/15 14:38:48;;;;;;;8.77;8.37;;;;;;;;;;6266342;23;20573;-86
2023/09/15 14:41:18;;;;;;;8.70;8.23;;;;;;;;;;6267860;22;20550;-85
2023/09/15 14:43:49;;;;;;;8.33;7.93;;;;;;;;;;6234433;22;20547;-86
2023/09/15 14:46:18;;;;;;;8.87;8.13;;;;;;;;;;6207895;23;20596;-85
2023/09/15 14:48:50;;;;;;;8.50;8.00;;;;;;;;;;6257516;22;21172;-82
2023/09/15 14:51:22;;;;;;;8.53;8.20;;;;;;;;;;6207532;23;20570;-84
2023/09/15 14:53:55;;;;;;;8.70;8.10;;;;;;;;;;6258173;23;20611;-84
2023/09/15 14:56:24;;;;;;;9.30;8.60;;;;;;;;;;6230857;23;20598;-85
2023/09/15 14:58:53;;;;;;;8.73;8.23;;;;;;;;;;6230755;23;20595;-85
2023/09/15 15:01:22;;;;;;;9.07;8.57;;;;;;;;;;6206632;23;20595;-85
2023/09/15 15:03:51;;;;;;;8.53;8.00;;;;;;;;;;6194662;23;20639;-86
2023/09/15 15:06:26;;;;;;;8.73;8.33;;;;;;;;;;6227246;23;20544;-85
2023/09/15 15:08:55;;;;;;;8.27;7.87;;;;;;;;;;6228765;23;20576;-85
2023/09/15 15:11:25;;;;;;;8.53;8.03;;;;;;;;;;6227795;23;20950;-85
2023/09/15 15:14:00;;;;;;;9.27;8.67;;;;;;;;;;6236803;23;20646;-85
2023/09/15 15:16:38;;;;;;;8.80;8.30;;;;;;;;;;6213541;23;21155;-85
2023/09/15 15:19:06;;;;;;;8.67;8.00;;;;;;;;;;6188092;23;20603;-86
2023/09/15 15:21:44;;;;;;;8.73;8.27;;;;;;;;;;6235963;23;20629;-87
2023/09/15 15:24:13;;;;;;;8.63;8.13;;;;;;;;;;6174719;23;20638;-92
2023/09/15 15:26:47;;;;;;;9.50;8.73;;;;;;;;;;6224289;23;20964;-90
2023/09/15 15:29:18;;;;;;;8.63;8.13;;;;;;;;;;6199052;23;20614;-90
2023/09/15 15:32:02;;;;;;;8.23;7.73;;;;;;;;;;6202613;23;20576;-89
2023/09/15 15:34:45;;;;;;;8.10;7.60;;;;;;;;;;6209422;23;20588;-90
2023/09/15 15:37:24;;;;;;;8.67;8.20;;;;;;;;;;6179181;23;20594;-89
2023/09/15 15:40:10;;;;;;;8.13;7.73;;;;;;;;;;6234057;23;20576;-88
2023/09/15 15:42:38;;;;;;;8.07;7.77;;;;;;;;;;6180498;23;20556;-87
2023/09/15 15:45:16;;;;;;;8.37;7.97;;;;;;;;;;6202096;23;20612;-88
2023/09/15 15:47:46;;;;;;;8.93;8.03;;;;;;;;;;6226566;23;20610;-88
2023/09/15 15:50:15;;;;;;;8.80;8.30;;;;;;;;;;6226173;23;20562;-89
2023/09/15 15:52:48;;;;;;;8.33;7.93;;;;;;;;;;6204981;23;20761;-86
2023/09/15 15:55:18;;;;;;;8.27;7.77;;;;;;;;;;6223535;23;20598;-87
2023/09/15 15:57:51;;;;;;;8.47;8.03;;;;;;;;;;6224867;23;20576;-91
2023/09/15 16:00:20;;;;;;;8.67;7.97;;;;;;;;;;6226657;23;20564;-89
2023/09/15 16:02:53;;;;;;;8.30;7.80;;;;;;;;;;6172778;23;20619;-88
2023/09/15 16:05:25;;;;;;;8.40;7.80;;;;;;;;;;6198014;23;20576;-88
2023/09/15 16:07:58;;;;;;;8.03;7.63;;;;;;;;;;6198701;23;20582;-86
2023/09/15 16:10:26;;;;;;;8.33;7.83;;;;;;;;;;6229426;23;20590;-87
2023/09/15 16:13:01;;;;;;;8.10;7.70;;;;;;;;;;6201266;23;20697;-83
2023/09/15 16:15:45;;;;;;;8.60;7.90;;;;;;;;;;6237730;23;20583;-85
2023/09/15 16:18:15;;;;;;;8.70;8.00;;;;;;;;;;6202221;23;20587;-85
2023/09/15 16:20:45;;;;;;;8.03;7.63;;;;;;;;;;6175524;23;20920;-85
2023/09/15 16:23:18;;;;;;;8.30;7.90;;;;;;;;;;6195688;23;20618;-84
2023/09/15 16:25:47;;;;;;;8.53;8.00;;;;;;;;;;6173137;23;20588;-83
2023/09/15 16:28:17;;;;;;;8.83;8.13;;;;;;;;;;6172547;23;20652;-87
2023/09/15 16:30:49;;;;;;;8.43;7.93;;;;;;;;;;6146750;23;20555;-86
2023/09/15 16:33:18;;;;;;;8.07;7.70;;;;;;;;;;6155894;23;20627;-90
2023/09/15 16:35:59;;;;;;;8.00;7.30;;;;;;;;;;6178023;23;20552;-89
2023/09/15 16:38:29;;;;;;;8.33;7.43;;;;;;;;;;6174092;23;20856;-89
2023/09/15 16:41:00;;;;;;;8.23;7.30;;;;;;;;;;6173465;23;20552;-89
2023/09/15 16:43:31;;;;;;;8.50;8.00;;;;;;;;;;6171465;23;20644;-89
2023/09/15 16:45:59;;;;;;;8.17;7.47;;;;;;;;;;6170974;23;20597;-90
2023/09/15 16:48:29;;;;;;;7.80;7.40;;;;;;;;;;6195541;23;20604;-85
2023/09/15 16:50:57;;;;;;;8.30;7.40;;;;;;;;;;6167642;23;20607;-88
2023/09/15 16:53:26;;;;;;;7.50;7.00;;;;;;;;;;6193220;23;20667;-89
2023/09/15 16:55:57;;;;;;;8.07;7.57;;;;;;;;;;6167116;23;20557;-89
2023/09/15 16:58:25;;;;;;;9.53;8.70;;;;;;;;;;6194232;23;20557;-88
2023/09/15 17:00:57;;;;;;;6.93;6.53;;;;;;;;;;6167238;23;20576;-91
2023/09/15 17:03:26;;;;;;;8.40;7.80;;;;;;;;;;6193220;23;20616;-85
2023/09/15 17:05:54;;;;;;;6.77;6.47;;;;;;;;;;6143609;23;20599;-89
2023/09/15 17:08:22;;;;;;;10.20;6.97;;;;;;;;;;6195150;23;20615;-89
2023/09/15 17:10:51;;;;;;;11.93;7.30;;;;;;;;;;6193626;23;20612;-89
2023/09/15 17:13:22;;;;;;;7.37;6.97;;;;;;;;;;6192277;23;20663;-89
2023/09/15 17:15:50;;;;;;;10.93;7.87;;;;;;;;;;6166354;23;21113;-89
2023/09/15 17:18:18;;;;;;;7.70;7.30;;;;;;;;;;6166630;23;20624;-89
2023/09/15 17:20:46;;;;;;;10.13;9.43;;;;;;;;;;6167021;23;20635;-91
2023/09/15 17:23:14;;;;;;;7.93;7.50;;;;;;;;;;6198118;23;20619;-90
2023/09/15 17:25:45;;;;;;;8.07;7.33;;;;;;;;;;6223651;23;20580;-90
2023/09/15 17:28:14;;;;;;;7.40;7.00;;;;;;;;;;6200015;23;20611;-90
2023/09/15 17:30:44;;;;;;;7.60;7.20;;;;;;;;;;6198211;23;20563;-91
2023/09/15 17:33:12;;;;;;;8.50;7.90;;;;;;;;;;6172850;23;20655;-90
2023/09/15 17:35:50;;;;;;;8.50;7.90;;;;;;;;;;6221078;22;20752;-90
2023/09/15 17:38:21;;;;;;;7.70;7.20;;;;;;;;;;6208537;23;20550;-87
2023/09/15 17:40:52;;;;;;;7.00;6.50;;;;;;;;;;6230647;23;20615;-87
2023/09/15 17:43:24;;;;;;;7.80;7.10;;;;;;;;;;6226937;23;20837;-87
2023/09/15 17:45:54;;;;;;;8.63;7.93;;;;;;;;;;6202105;23;20575;-86
2023/09/15 17:48:22;;;;;;;8.33;7.63;;;;;;;;;;6227134;23;20563;-87
2023/09/15 17:50:51;;;;;;;7.57;7.07;;;;;;;;;;6223945;23;20607;-85
2023/09/15 17:53:22;;;;;;;7.50;7.07;;;;;;;;;;6225176;23;20654;-87
2023/09/15 17:55:53;;;;;;;7.90;7.40;;;;;;;;;;6224890;23;20574;-85
2023/09/15 17:58:21;;;;;;;7.37;6.77;;;;;;;;;;6226291;23;20694;-86
2023/09/15 18:00:50;;;;;;;7.20;6.70;;;;;;;;;;6199781;23;20586;-85
2023/09/15 18:03:23;;;;;;;6.80;6.23;;;;;;;;;;6195568;23;20622;-87
2023/09/15 18:05:52;;;;;;;7.43;6.83;;;;;;;;;;6172620;23;20566;-85
2023/09/15 18:08:21;;;;;;;6.93;6.33;;;;;;;;;;6199212;23;20650;-86
2023/09/15 18:10:50;;;;;;;6.90;6.30;;;;;;;;;;6224497;23;20953;-89
2023/09/15 18:13:18;;;;;;;6.50;6.20;;;;;;;;;;6172598;23;21170;-87
2023/09/15 18:15:53;;;;;;;6.53;6.03;;;;;;;;;;6194813;23;20572;-90
2023/09/15 18:18:27;;;;;;;7.03;6.43;;;;;;;;;;6197332;23;20652;-88
2023/09/15 18:21:03;;;;;;;7.10;6.60;;;;;;;;;;6172104;23;20540;-87
2023/09/15 18:26:40;;;;;;;8.90;6.80;;;;;;;;;;6227818;23;20576;-89
2023/09/15 18:29:39;;;;;;;6.97;6.50;;;;;;;;;;6189554;23;20580;-88
2023/09/15 18:32:20;;;;;;;6.13;5.73;;;;;;;;;;6178099;23;20587;-88
2023/09/15 18:35:00;;;;;;;5.90;5.60;;;;;;;;;;6199212;23;20600;-87
2023/09/15 18:37:33;;;;;;;6.57;5.93;;;;;;;;;;6202102;23;20659;-89
2023/09/15 18:40:03;;;;;;;6.57;6.00;;;;;;;;;;6203132;23;20564;-88
2023/09/15 18:42:32;;;;;;;7.50;5.87;;;;;;;;;;6209260;23;20539;-88
2023/09/15 18:45:02;;;;;;;6.40;5.90;;;;;;;;;;6205247;23;20564;-88
2023/09/15 18:47:33;;;;;;;10.80;5.90;;;;;;;;;;6203209;23;20551;-87
2023/09/15 18:50:06;;;;;;;5.70;5.20;;;;;;;;;;6177800;23;20584;-87
2023/09/15 18:52:36;;;;;;;6.80;6.20;;;;;;;;;;6204018;23;20599;-89
2023/09/15 18:55:05;;;;;;;5.73;5.30;;;;;;;;;;6204367;23;20618;-89
2023/09/15 18:57:39;;;;;;;6.60;6.00;;;;;;;;;;6207516;23;20544;-86
2023/09/15 19:00:09;;;;;;;6.10;5.50;;;;;;;;;;6211267;23;20572;-88
2023/09/15 19:02:39;;;;;;;5.37;4.97;;;;;;;;;;6156458;23;20552;-88
2023/09/15 19:05:11;;;;;;;6.17;5.60;;;;;;;;;;6229907;23;20595;-87
2023/09/15 19:07:41;;;;;;;7.57;5.63;;;;;;;;;;6204774;23;20559;-86
2023/09/15 19:10:11;;;;;;;5.63;5.03;;;;;;;;;;6202560;23;20650;-87
2023/09/15 19:12:43;;;;;;;5.77;5.27;;;;;;;;;;6202473;23;20608;-88
2023/09/15 19:15:15;;;;;;;7.30;5.20;;;;;;;;;;6177452;23;20587;-87
2023/09/15 19:17:46;;;;;;;6.20;5.67;;;;;;;;;;6203830;23;20552;-88
2023/09/15 19:20:16;;;;;;;6.00;5.40;;;;;;;;;;6181535;23;20558;-89
2023/09/15 19:22:46;;;;;;;8.50;5.70;;;;;;;;;;6180703;23;20559;-86
2023/09/15 19:25:21;;;;;;;9.90;6.20;;;;;;;;;;6207912;23;20556;-86
2023/09/15 19:27:58;;;;;;;12.37;5.50;;;;;;;;;;6160790;23;20588;-88
2023/09/15 19:30:38;;;;;;;7.70;5.33;;;;;;;;;;6209808;23;20603;-89
2023/09/15 19:33:11;;;;;;;7.97;5.77;;;;;;;;;;6207256;23;20579;-88
2023/09/15 19:35:46;;;;;;;8.20;5.80;;;;;;;;;;6234322;23;20635;-86
2023/09/15 19:38:19;;;;;;;5.50;5.00;;;;;;;;;;6236700;23;20528;-87
2023/09/15 19:40:54;;;;;;;6.83;5.50;;;;;;;;;;6215000;23;20579;-87
2023/09/15 19:43:25;;;;;;;6.10;5.20;;;;;;;;;;6204337;23;20579;-88
2023/09/15 19:45:56;;;;;;;5.83;5.10;;;;;;;;;;6240614;23;20861;-87
2023/09/15 19:48:29;;;;;;;5.80;4.90;;;;;;;;;;6206972;23;20548;-86
2023/09/15 19:50:59;;;;;;;6.87;5.23;;;;;;;;;;6205262;23;20584;-87
2023/09/15 19:53:28;;;;;;;5.50;5.10;;;;;;;;;;6156869;23;20536;-87
2023/09/15 19:55:56;;;;;;;5.50;5.10;;;;;;;;;;6230375;23;20643;-87
2023/09/15 19:58:25;;;;;;;9.33;5.67;;;;;;;;;;6183206;23;21104;-86
2023/09/15 20:00:56;;;;;;;6.10;5.40;;;;;;;;;;6232596;23;20691;-87
2023/09/15 20:03:24;;;;;;;15.40;5.30;;;;;;;;;;6199604;23;20647;-86
2023/09/15 20:05:54;;;;;;;5.60;5.10;;;;;;;;;;6199365;23;20622;-87
2023/09/15 20:08:28;;;;;;;11.60;5.17;;;;;;;;;;6228004;23;20570;-87
2023/09/15 20:10:57;;;;;;;5.03;4.73;;;;;;;;;;6201704;23;20555;-87
2023/09/15 20:13:25;;;;;;;6.10;4.93;;;;;;;;;;6202036;23;20611;-86
2023/09/15 20:15:54;;;;;;;5.40;5.00;;;;;;;;;;6198402;23;20628;-87
2023/09/15 20:18:22;;;;;;;6.07;5.50;;;;;;;;;;6226831;23;21158;-87
2023/09/15 20:20:52;;;;;;;6.03;5.47;;;;;;;;;;6176890;23;20607;-86
2023/09/15 20:23:21;;;;;;;6.70;4.37;;;;;;;;;;6202415;23;20592;-87
2023/09/15 20:25:51;;;;;;;6.00;5.50;;;;;;;;;;6201677;23;20622;-88
2023/09/15 20:28:22;;;;;;;7.00;5.27;;;;;;;;;;6227054;23;20520;-88
2023/09/15 20:30:51;;;;;;;6.07;5.47;;;;;;;;;;6200988;23;20588;-87
2023/09/15 20:33:21;;;;;;;5.90;4.73;;;;;;;;;;6227290;23;20587;-87
2023/09/15 20:35:50;;;;;;;5.80;4.70;;;;;;;;;;6200534;23;20638;-87
2023/09/15 20:38:19;;;;;;;6.03;4.83;;;;;;;;;;6198938;23;20604;-87
2023/09/15 20:40:47;;;;;;;4.97;4.57;;;;;;;;;;6177968;23;20631;-87
2023/09/15 20:43:17;;;;;;;5.77;5.00;;;;;;;;;;6227355;23;20615;-86
2023/09/15 20:45:47;;;;;;;7.17;4.80;;;;;;;;;;6201515;23;20598;-87
2023/09/15 20:48:16;;;;;;;6.53;4.97;;;;;;;;;;6224730;23;21135;-87